Airfield :
LOGIN :

Register | Disclaimer

   EN    FR    IT 

 










Legend :    VFR   Marginal VFR   IFR   Intensive IFR   Very Intensive IFR
Visi :
Ceiling :
>= 8 km
>= 3000ft
5 to 8 km
1000 to 3000 ft
1500m to 5 km
500 to 1000 ft
800 to 1500m
200 to 500 ft
< 800m
< 200 ft
Symbols :   Thunderstorms  Fog  Heavy snow  Heavy precipitations  Wind > 20 kt
SIGMETs :     Misc.  Thunderstorms  Icing  Turbulence  Mountain Waves  Volcanic Ashes






- Airport Elevation : 157 ft
- IATA code : SXF


EDDB - Berlin Schönefeld

CURRENT METAR :
  • 281120Z AUTO 12008KT CAVOK 05/02 Q1016 NOSIG

EXPIRED METARs :
  • 281050Z AUTO 12012KT CAVOK 05/02 Q1016
  • 281020Z AUTO 12013KT 090V150 9999 FEW013 04/02 Q1017 NOSIG
  • 280950Z AUTO 12014KT 9999 FEW012 04/02 Q1017 NOSIG
  • 280920Z AUTO 12013KT 9999 FEW012 04/02 Q1017 NOSIG
  • 280850Z AUTO 11013KT 9999 FEW010 03/01 Q1017 NOSIG

TAF TAF EDDB
Valid from the 28 at 12:00 until the 29 at 12:00 UTC


281100Z 2812/2912 10009KT CAVOK
PROB40
TEMPO 2901/2909 4000 BR
PROB30
TEMPO 2904/2909 BKN009
PROB30
TEMPO 2909/2912 BKN008



MET'MAP, your aeronautical weather chart ! - Copyright ORBIFLY December 2007 - Disclaimer

ORBIFLY MET'MAP TEAM :

Programming & Development : Alexandra Zaïnal
Original concept : Baudouin d'Aumeries
Technical & hardware support : Manuel Goepfert
Assistance : Marc-Olivier Méhu




SOURCES & CREDITS :

   NOAA